Terminal Aerodrome Forecast
Issued by NWS Pocatello, ID

Home | Current Version | Previous Version | Text Only | Print | Product List | Glossary On
Versions: 1 2 3 4 5 6 7 8 9 10 11 12 13 14 15 16 17 18
000
FTUS45 KPIH 202000 AAA
TAFPIH
TAF AMD
KPIH 202017Z 2020/2118 22005KT P6SM VCSH BKN025
     FM210500 VRB05KT 5SM BR OVC020
     FM211500 VRB05KT P6SM SCT020 OVC030=

USA.gov is the U.S. government's official web portal to all federal, state and local government web resources and services.